Time,TemperatureF,DewpointF,PressureIn,WindDirection,WindDirectionDegrees,WindSpeedMPH,WindSpeedGustMPH,Humidity,HourlyPrecipIn,Conditions,Clouds,dailyrainin,SoftwareType,DateUTC
2013-08-23 00:01:00,77.9,65.6,29.64,ESE,103,5.4,5.8,66,0.00,,---,0.00,VWS V14.01,2013-08-23 05:01:00,
2013-08-23 00:06:00,77.7,66.1,29.64,ESE,114,4.9,6.3,68,0.00,,---,0.00,VWS V14.01,2013-08-23 05:06:00,
2013-08-23 00:11:00,77.5,65.9,29.64,SE,124,3.6,5.4,68,0.00,,---,0.00,VWS V14.01,2013-08-23 05:11:00,
2013-08-23 00:16:00,77.4,65.8,29.64,ESE,116,2.7,3.6,68,0.00,,---,0.00,VWS V14.01,2013-08-23 05:16:00,
2013-08-23 00:21:00,77.2,65.6,29.64,ESE,112,4.5,4.5,68,0.00,,---,0.00,VWS V14.01,2013-08-23 05:21:00,
2013-08-23 00:26:00,76.8,65.9,29.64,ESE,107,4.0,4.0,69,0.00,,---,0.00,VWS V14.01,2013-08-23 05:26:00,
2013-08-23 00:31:00,76.6,66.3,29.64,ESE,111,5.4,5.4,70,0.00,,---,0.00,VWS V14.01,2013-08-23 05:31:00,
2013-08-23 00:36:00,76.6,66.3,29.64,ESE,114,3.6,5.8,70,0.00,,---,0.00,VWS V14.01,2013-08-23 05:36:00,
2013-08-23 00:41:00,76.6,66.9,29.64,ESE,110,5.8,6.3,72,0.00,,---,0.00,VWS V14.01,2013-08-23 05:41:00,
2013-08-23 00:46:00,76.8,67.1,29.64,ESE,114,4.9,6.3,72,0.00,,---,0.00,VWS V14.01,2013-08-23 05:46:00,
2013-08-23 00:51:00,76.8,66.5,29.64,ESE,116,5.4,5.4,70,0.00,,---,0.00,VWS V14.01,2013-08-23 05:51:00,
2013-08-23 00:56:00,76.8,66.5,29.64,ESE,120,6.3,6.3,70,0.00,,---,0.00,VWS V14.01,2013-08-23 05:56:00,
2013-08-23 01:01:00,76.8,66.5,29.64,ESE,122,6.3,6.3,70,0.00,,---,0.00,VWS V14.01,2013-08-23 06:01:00,
2013-08-23 01:06:00,76.8,66.5,29.64,SE,126,5.8,8.3,70,0.00,,---,0.00,VWS V14.01,2013-08-23 06:06:00,
2013-08-23 01:11:00,76.6,66.9,29.64,ESE,115,6.3,6.3,72,0.00,,---,0.00,VWS V14.01,2013-08-23 06:11:00,
2013-08-23 01:16:00,76.6,66.9,29.64,ESE,116,5.4,6.3,72,0.00,,---,0.00,VWS V14.01,2013-08-23 06:16:00,
2013-08-23 01:21:00,76.5,66.8,29.64,SE,135,6.3,7.6,72,0.00,,---,0.00,VWS V14.01,2013-08-23 06:21:00,
2013-08-23 01:26:00,76.5,66.8,29.64,SE,133,6.7,6.7,72,0.00,,---,0.00,VWS V14.01,2013-08-23 06:26:00,
2013-08-23 01:31:00,76.3,66.6,29.61,ESE,116,5.4,6.3,72,0.00,,---,0.00,VWS V14.01,2013-08-23 06:31:00,
2013-08-23 01:36:00,76.1,66.4,29.61,ESE,117,3.6,4.9,72,0.00,,---,0.00,VWS V14.01,2013-08-23 06:36:00,
2013-08-23 01:41:00,75.9,66.2,29.61,SE,135,4.0,4.0,72,0.00,,---,0.00,VWS V14.01,2013-08-23 06:41:00,
2013-08-23 01:46:00,75.7,66.7,29.61,SE,130,3.1,3.1,74,0.00,,---,0.00,VWS V14.01,2013-08-23 06:46:00,
2013-08-23 01:51:00,75.6,66.5,29.61,SE,130,0.0,2.2,74,0.00,,---,0.00,VWS V14.01,2013-08-23 06:51:00,
2013-08-23 01:56:00,75.2,66.2,29.61,SE,130,0.0,0.0,74,0.00,,---,0.00,VWS V14.01,2013-08-23 06:56:00,
2013-08-23 02:01:00,75.0,66.6,29.64,SE,130,0.0,0.0,75,0.00,,---,0.00,VWS V14.01,2013-08-23 07:01:00,
2013-08-23 02:06:00,74.8,67.5,29.64,SE,130,0.0,0.0,78,0.00,,---,0.00,VWS V14.01,2013-08-23 07:06:00,
2013-08-23 02:11:00,74.8,68.1,29.64,SE,130,0.0,0.0,80,0.00,,---,0.00,VWS V14.01,2013-08-23 07:11:00,
2013-08-23 02:16:00,74.7,67.9,29.64,SE,130,0.0,0.0,80,0.00,,---,0.00,VWS V14.01,2013-08-23 07:16:00,
2013-08-23 02:21:00,74.7,67.3,29.64,SE,130,0.0,0.0,78,0.00,,---,0.00,VWS V14.01,2013-08-23 07:21:00,
2013-08-23 02:26:00,74.5,67.2,29.64,SE,130,0.0,0.0,78,0.00,,---,0.00,VWS V14.01,2013-08-23 07:26:00,
2013-08-23 02:31:00,74.3,67.0,29.64,SE,130,0.0,0.0,78,0.00,,---,0.00,VWS V14.01,2013-08-23 07:31:00,
2013-08-23 02:36:00,73.9,66.7,29.64,East,101,3.6,3.6,78,0.00,,---,0.00,VWS V14.01,2013-08-23 07:36:00,
2013-08-23 02:41:00,73.8,66.5,29.64,ESE,108,3.6,3.6,78,0.00,,---,0.00,VWS V14.01,2013-08-23 07:41:00,
2013-08-23 02:46:00,73.4,66.7,29.64,ESE,108,4.0,4.0,80,0.00,,---,0.00,VWS V14.01,2013-08-23 07:46:00,
2013-08-23 02:51:00,73.2,67.6,29.64,ESE,116,3.1,3.6,82,0.00,,---,0.00,VWS V14.01,2013-08-23 07:51:00,
2013-08-23 02:56:00,73.2,68.1,29.64,ESE,116,3.6,3.6,84,0.00,,---,0.00,VWS V14.01,2013-08-23 07:56:00,
2013-08-23 03:01:00,73.2,68.1,29.64,ESE,116,3.1,3.1,84,0.00,,---,0.00,VWS V14.01,2013-08-23 08:01:00,
2013-08-23 03:06:00,73.0,68.4,29.64,ESE,116,3.1,3.1,86,0.00,,---,0.00,VWS V14.01,2013-08-23 08:06:00,
2013-08-23 03:11:00,72.9,67.8,29.64,ESE,115,4.0,4.0,84,0.00,,---,0.00,VWS V14.01,2013-08-23 08:11:00,
2013-08-23 03:16:00,72.5,67.4,29.64,ESE,107,4.0,4.9,84,0.00,,---,0.00,VWS V14.01,2013-08-23 08:16:00,
2013-08-23 03:21:00,72.3,67.7,29.64,ESE,107,4.0,4.0,86,0.00,,---,0.00,VWS V14.01,2013-08-23 08:21:00,
2013-08-23 03:26:00,72.3,68.2,29.64,ESE,111,4.9,4.9,87,0.00,,---,0.00,VWS V14.01,2013-08-23 08:26:00,
2013-08-23 03:31:00,72.1,68.6,29.64,ESE,110,4.5,4.5,88,0.00,,---,0.00,VWS V14.01,2013-08-23 08:31:00,
2013-08-23 03:36:00,72.1,69.1,29.64,ESE,102,4.0,4.0,90,0.00,,---,0.00,VWS V14.01,2013-08-23 08:36:00,
2013-08-23 03:41:00,72.1,69.1,29.64,ESE,105,4.0,4.0,90,0.00,,---,0.00,VWS V14.01,2013-08-23 08:41:00,
2013-08-23 03:46:00,72.1,69.1,29.61,ESE,108,4.0,5.8,90,0.00,,---,0.00,VWS V14.01,2013-08-23 08:46:00,
2013-08-23 03:51:00,72.3,69.2,29.61,East,99,5.8,5.8,90,0.00,,---,0.00,VWS V14.01,2013-08-23 08:51:00,
2013-08-23 03:56:00,72.3,69.2,29.61,ESE,107,3.6,3.6,90,0.00,,---,0.00,VWS V14.01,2013-08-23 08:56:00,
2013-08-23 04:01:00,72.3,69.2,29.64,ESE,108,5.4,5.4,90,0.00,,---,0.00,VWS V14.01,2013-08-23 09:01:00,
2013-08-23 04:06:00,72.3,69.2,29.64,ESE,109,4.5,4.5,90,0.00,,---,0.00,VWS V14.01,2013-08-23 09:06:00,
2013-08-23 04:11:00,72.3,69.2,29.64,ESE,119,2.7,5.4,90,0.00,,---,0.00,VWS V14.01,2013-08-23 09:11:00,
2013-08-23 04:16:00,72.3,69.2,29.64,ESE,116,3.6,4.0,90,0.00,,---,0.00,VWS V14.01,2013-08-23 09:16:00,
2013-08-23 04:21:00,72.1,69.1,29.64,ESE,113,4.0,4.0,90,0.00,,---,0.00,VWS V14.01,2013-08-23 09:21:00,
2013-08-23 04:26:00,72.1,69.1,29.64,ESE,111,0.0,4.0,90,0.00,,---,0.00,VWS V14.01,2013-08-23 09:26:00,
2013-08-23 04:31:00,72.0,68.9,29.61,ESE,111,0.0,2.2,90,0.00,,---,0.00,VWS V14.01,2013-08-23 09:31:00,
2013-08-23 04:36:00,71.8,68.2,29.61,ESE,111,0.0,0.0,88,0.00,,---,0.00,VWS V14.01,2013-08-23 09:36:00,
2013-08-23 04:41:00,71.8,68.7,29.61,ESE,111,3.1,3.1,90,0.00,,---,0.00,VWS V14.01,2013-08-23 09:41:00,
2013-08-23 04:46:00,71.6,68.5,29.61,ESE,102,4.0,4.5,90,0.00,,---,0.00,VWS V14.01,2013-08-23 09:46:00,
2013-08-23 04:51:00,71.6,68.5,29.61,ESE,102,0.0,3.1,90,0.00,,---,0.00,VWS V14.01,2013-08-23 09:51:00,
2013-08-23 04:56:00,71.4,68.8,29.61,ESE,102,0.0,2.7,92,0.00,,---,0.00,VWS V14.01,2013-08-23 09:56:00,
2013-08-23 05:00:00,71.2,68.6,29.61,East,100,3.6,4.0,92,0.00,,---,0.00,VWS V14.01,2013-08-23 10:00:00,
2013-08-23 05:05:00,71.2,68.6,29.61,ENE,76,3.6,4.0,92,0.00,,---,0.00,VWS V14.01,2013-08-23 10:05:00,
2013-08-23 05:10:00,71.1,68.5,29.61,ENE,61,5.4,5.4,92,0.00,,---,0.00,VWS V14.01,2013-08-23 10:10:00,
2013-08-23 05:15:00,71.1,68.9,29.61,ENE,75,2.7,3.6,93,0.00,,---,0.00,VWS V14.01,2013-08-23 10:15:00,
2013-08-23 05:20:00,71.1,68.9,29.61,ENE,73,4.0,4.0,93,0.00,,---,0.00,VWS V14.01,2013-08-23 10:20:00,
2013-08-23 05:25:00,71.1,68.9,29.61,ENE,73,4.0,4.0,93,0.00,,---,0.00,VWS V14.01,2013-08-23 10:25:00,
2013-08-23 05:30:00,70.9,68.8,29.61,ENE,73,3.1,4.0,93,0.00,,---,0.00,VWS V14.01,2013-08-23 10:30:00,
2013-08-23 05:35:00,70.9,68.8,29.61,ENE,73,2.7,2.7,93,0.00,,---,0.00,VWS V14.01,2013-08-23 10:35:00,
2013-08-23 05:40:00,70.7,69.1,29.61,ENE,73,0.0,2.7,94,0.00,,---,0.00,VWS V14.01,2013-08-23 10:40:00,
2013-08-23 05:45:00,70.7,69.1,29.61,ENE,73,0.0,0.0,94,0.00,,---,0.00,VWS V14.01,2013-08-23 10:45:00,
2013-08-23 05:50:00,70.5,68.9,29.61,East,85,0.0,0.0,94,0.00,,---,0.00,VWS V14.01,2013-08-23 10:50:00,
2013-08-23 05:55:00,70.3,68.7,29.61,East,89,3.1,3.6,94,0.00,,---,0.00,VWS V14.01,2013-08-23 10:55:00,
2013-08-23 06:00:00,70.2,68.5,29.61,East,89,3.1,4.0,94,0.00,,---,0.00,VWS V14.01,2013-08-23 11:00:00,
2013-08-23 06:05:00,70.2,69.0,29.61,East,89,3.6,3.6,96,0.00,,---,0.00,VWS V14.01,2013-08-23 11:05:00,
2013-08-23 06:10:00,70.2,69.0,29.61,East,89,3.6,4.0,96,0.00,,---,0.00,VWS V14.01,2013-08-23 11:10:00,
2013-08-23 06:15:00,70.2,69.0,29.61,East,89,3.6,4.0,96,0.00,,---,0.00,VWS V14.01,2013-08-23 11:15:00,
2013-08-23 06:20:00,70.2,69.4,29.61,East,89,4.9,4.9,98,0.00,,---,0.00,VWS V14.01,2013-08-23 11:20:00,
2013-08-23 06:25:00,70.0,69.2,29.61,East,88,4.0,5.8,98,0.00,,---,0.00,VWS V14.01,2013-08-23 11:25:00,
2013-08-23 06:30:00,70.0,69.2,29.61,East,93,4.5,4.5,98,0.00,,---,0.00,VWS V14.01,2013-08-23 11:30:00,
2013-08-23 06:35:00,70.0,69.7,29.61,East,91,3.6,4.0,99,0.00,,---,0.00,VWS V14.01,2013-08-23 11:35:00,
2013-08-23 06:40:00,70.0,69.7,29.61,East,89,3.6,4.9,99,0.00,,---,0.00,VWS V14.01,2013-08-23 11:40:00,
2013-08-23 06:45:00,70.0,70.0,29.61,East,82,3.6,4.0,100,0.00,,---,0.00,VWS V14.01,2013-08-23 11:45:00,
2013-08-23 06:50:00,70.0,70.0,29.61,ESE,102,3.6,4.0,100,0.00,,---,0.00,VWS V14.01,2013-08-23 11:50:00,
2013-08-23 06:55:00,70.0,70.0,29.61,East,98,3.1,4.0,100,0.00,,---,0.00,VWS V14.01,2013-08-23 11:55:00,
2013-08-23 07:00:00,70.0,70.0,29.64,East,98,4.0,4.0,100,0.00,,---,0.00,VWS V14.01,2013-08-23 12:00:00,
2013-08-23 07:05:00,70.0,70.0,29.64,East,99,4.5,4.5,100,0.00,,---,0.00,VWS V14.01,2013-08-23 12:05:00,
2013-08-23 07:10:00,70.2,70.2,29.64,East,87,3.1,5.4,100,0.00,,---,0.00,VWS V14.01,2013-08-23 12:10:00,
2013-08-23 07:15:00,70.3,70.1,29.64,ESE,103,4.0,4.0,99,0.00,,---,0.00,VWS V14.01,2013-08-23 12:15:00,
2013-08-23 07:20:00,70.3,70.1,29.64,East,93,2.7,3.1,99,0.00,,---,0.00,VWS V14.01,2013-08-23 12:20:00,
2013-08-23 07:25:00,70.5,70.2,29.64,East,88,2.7,4.0,99,0.00,,---,0.00,VWS V14.01,2013-08-23 12:25:00,
2013-08-23 07:30:00,70.5,70.2,29.64,ENE,73,2.7,3.6,99,0.00,,---,0.00,VWS V14.01,2013-08-23 12:30:00,
2013-08-23 07:35:00,70.7,70.0,29.64,East,92,4.0,4.9,98,0.00,,---,0.00,VWS V14.01,2013-08-23 12:35:00,
2013-08-23 07:40:00,70.9,70.1,29.64,East,81,4.0,4.0,98,0.00,,---,0.00,VWS V14.01,2013-08-23 12:40:00,
2013-08-23 07:45:00,71.2,70.5,29.64,East,82,2.7,4.0,98,0.00,,---,0.00,VWS V14.01,2013-08-23 12:45:00,
2013-08-23 07:50:00,71.6,70.4,29.64,East,86,3.6,4.9,96,0.00,,---,0.00,VWS V14.01,2013-08-23 12:50:00,
2013-08-23 07:55:00,72.0,70.8,29.64,East,98,4.0,4.0,96,0.00,,---,0.00,VWS V14.01,2013-08-23 12:55:00,
2013-08-23 08:00:00,72.3,70.7,29.64,East,95,4.0,4.0,94,0.00,,---,0.00,VWS V14.01,2013-08-23 13:00:00,
2013-08-23 08:05:00,72.9,70.7,29.64,East,93,3.1,4.0,93,0.00,,---,0.00,VWS V14.01,2013-08-23 13:05:00,
2013-08-23 08:10:00,73.4,70.8,29.64,East,89,4.0,5.4,92,0.00,,---,0.00,VWS V14.01,2013-08-23 13:10:00,
2013-08-23 08:15:00,73.9,70.3,29.64,East,88,4.0,5.4,88,0.00,,---,0.00,VWS V14.01,2013-08-23 13:15:00,
2013-08-23 08:20:00,74.5,69.8,29.64,East,93,4.5,4.9,86,0.00,,---,0.00,VWS V14.01,2013-08-23 13:20:00,
2013-08-23 08:25:00,74.8,69.2,29.64,ESE,104,3.6,4.9,82,0.00,,---,0.00,VWS V14.01,2013-08-23 13:25:00,
2013-08-23 08:30:00,75.6,67.1,29.67,ESE,108,3.1,5.8,75,0.00,,---,0.00,VWS V14.01,2013-08-23 13:30:00,
2013-08-23 08:35:00,76.1,67.0,29.67,East,92,5.4,5.4,74,0.00,,---,0.00,VWS V14.01,2013-08-23 13:35:00,
2013-08-23 08:40:00,77.0,67.3,29.67,East,92,3.6,4.0,72,0.00,,---,0.00,VWS V14.01,2013-08-23 13:40:00,
2013-08-23 08:45:00,77.7,67.4,29.67,ESE,111,4.9,4.9,70,0.00,,---,0.00,VWS V14.01,2013-08-23 13:45:00,
2013-08-23 08:50:00,78.3,65.3,29.67,SE,133,6.3,6.3,64,0.00,,---,0.00,VWS V14.01,2013-08-23 13:50:00,
2013-08-23 08:55:00,79.2,64.8,29.67,SE,128,5.8,5.8,62,0.00,,---,0.00,VWS V14.01,2013-08-23 13:55:00,
2013-08-23 09:00:00,80.1,63.5,29.67,SE,132,5.4,5.8,57,0.00,,---,0.00,VWS V14.01,2013-08-23 14:00:00,
2013-08-23 09:05:00,81.0,62.8,29.67,SE,141,6.3,8.1,54,0.00,,---,0.00,VWS V14.01,2013-08-23 14:05:00,
2013-08-23 09:10:00,81.7,62.6,29.67,SSE,154,5.4,6.3,52,0.00,,---,0.00,VWS V14.01,2013-08-23 14:10:00,
2013-08-23 09:15:00,82.2,61.5,29.67,SE,134,9.2,9.2,50,0.00,,---,0.00,VWS V14.01,2013-08-23 14:15:00,
2013-08-23 09:20:00,82.4,60.8,29.67,SE,143,4.0,4.0,48,0.00,,---,0.00,VWS V14.01,2013-08-23 14:20:00,
2013-08-23 09:25:00,82.9,61.2,29.67,SE,132,5.4,5.4,48,0.00,,---,0.00,VWS V14.01,2013-08-23 14:25:00,
2013-08-23 09:30:00,83.5,60.8,29.67,SSE,167,6.3,7.2,46,0.00,,---,0.00,VWS V14.01,2013-08-23 14:30:00,
2013-08-23 09:35:00,84.0,61.3,29.67,South,177,5.8,5.8,46,0.00,,---,0.00,VWS V14.01,2013-08-23 14:35:00,
2013-08-23 09:40:00,84.4,60.7,29.67,South,174,5.4,7.6,45,0.00,,---,0.00,VWS V14.01,2013-08-23 14:40:00,
2013-08-23 09:45:00,84.7,62.0,29.67,ESE,123,3.6,4.0,46,0.00,,---,0.00,VWS V14.01,2013-08-23 14:45:00,
2013-08-23 09:50:00,85.3,61.6,29.67,SSE,152,4.9,5.4,45,0.00,,---,0.00,VWS V14.01,2013-08-23 14:50:00,
2013-08-23 09:55:00,85.6,61.9,29.67,SE,145,7.6,7.6,45,0.00,,---,0.00,VWS V14.01,2013-08-23 14:55:00,
2013-08-23 10:00:00,86.2,61.4,29.67,SE,138,5.4,5.4,44,0.00,,---,0.00,VWS V14.01,2013-08-23 15:00:00,
2013-08-23 10:05:00,86.7,61.9,29.67,South,184,5.8,5.8,44,0.00,,---,0.00,VWS V14.01,2013-08-23 15:05:00,
2013-08-23 10:10:00,87.3,61.4,29.67,SSW,196,6.3,8.1,42,0.00,,---,0.00,VWS V14.01,2013-08-23 15:10:00,
2013-08-23 10:15:00,87.6,61.7,29.67,South,191,6.3,8.7,42,0.00,,---,0.00,VWS V14.01,2013-08-23 15:15:00,
2013-08-23 10:20:00,88.2,60.1,29.67,SW,217,7.6,7.6,39,0.00,,---,0.00,VWS V14.01,2013-08-23 15:20:00,
2013-08-23 10:25:00,88.5,59.3,29.67,SSW,213,4.9,5.8,38,0.00,,---,0.00,VWS V14.01,2013-08-23 15:25:00,
2013-08-23 10:30:00,88.9,58.5,29.67,SSW,193,0.0,0.0,36,0.00,,---,0.00,VWS V14.01,2013-08-23 15:30:00,
2013-08-23 10:35:00,89.4,59.0,29.67,SW,235,5.4,6.3,36,0.00,,---,0.00,VWS V14.01,2013-08-23 15:35:00,
2013-08-23 10:40:00,89.8,56.9,29.67,SSE,163,8.1,8.1,33,0.00,,---,0.00,VWS V14.01,2013-08-23 15:40:00,
2013-08-23 10:45:00,90.3,57.3,29.67,South,182,8.7,8.7,33,0.00,,---,0.00,VWS V14.01,2013-08-23 15:45:00,
2013-08-23 10:50:00,90.5,57.5,29.67,SW,236,8.1,8.1,33,0.00,,---,0.00,VWS V14.01,2013-08-23 15:50:00,
2013-08-23 10:55:00,90.9,57.8,29.67,SSW,198,11.0,11.0,33,0.00,,---,0.00,VWS V14.01,2013-08-23 15:55:00,
2013-08-23 11:00:00,91.0,56.7,29.67,South,182,8.3,8.3,32,0.00,,---,0.00,VWS V14.01,2013-08-23 16:00:00,
2013-08-23 11:05:00,91.2,55.5,29.67,SW,230,5.4,5.4,30,0.00,,---,0.00,VWS V14.01,2013-08-23 16:05:00,
2013-08-23 11:10:00,91.4,54.2,29.67,South,176,10.5,10.5,28,0.00,,---,0.00,VWS V14.01,2013-08-23 16:10:00,
2013-08-23 11:15:00,92.1,54.8,29.67,SW,216,3.6,3.6,28,0.00,,---,0.00,VWS V14.01,2013-08-23 16:15:00,
2013-08-23 11:20:00,92.5,55.2,29.64,SSW,208,10.5,10.5,28,0.00,,---,0.00,VWS V14.01,2013-08-23 16:20:00,
2013-08-23 11:25:00,92.8,55.5,29.64,South,191,10.1,10.1,28,0.00,,---,0.00,VWS V14.01,2013-08-23 16:25:00,
2013-08-23 11:30:00,93.4,54.4,29.64,SW,224,8.7,8.7,27,0.00,,---,0.00,VWS V14.01,2013-08-23 16:30:00,
2013-08-23 11:35:00,93.6,54.6,29.64,WSW,237,9.2,9.2,27,0.00,,---,0.00,VWS V14.01,2013-08-23 16:35:00,
2013-08-23 11:40:00,93.6,54.6,29.64,SW,215,11.4,11.4,27,0.00,,---,0.00,VWS V14.01,2013-08-23 16:40:00,
2013-08-23 11:45:00,93.7,54.7,29.64,WSW,244,7.6,7.6,27,0.00,,---,0.00,VWS V14.01,2013-08-23 16:45:00,
2013-08-23 11:50:00,93.7,54.7,29.64,SW,235,8.7,8.7,27,0.00,,---,0.00,VWS V14.01,2013-08-23 16:50:00,
2013-08-23 11:55:00,93.9,54.9,29.64,SW,233,9.6,9.6,27,0.00,,---,0.00,VWS V14.01,2013-08-23 16:55:00,
2013-08-23 12:00:00,93.9,54.9,29.64,WSW,237,8.3,8.7,27,0.00,,---,0.00,VWS V14.01,2013-08-23 17:00:00,
2013-08-23 12:05:00,93.9,53.3,29.64,SW,216,6.3,10.1,26,0.00,,---,0.00,VWS V14.01,2013-08-23 17:05:00,
2013-08-23 12:10:00,94.1,53.5,29.64,WSW,247,4.5,4.5,26,0.00,,---,0.00,VWS V14.01,2013-08-23 17:10:00,
2013-08-23 12:15:00,94.1,53.5,29.64,SSW,212,5.8,5.8,26,0.00,,---,0.00,VWS V14.01,2013-08-23 17:15:00,
2013-08-23 12:20:00,94.5,53.8,29.64,West,270,5.4,5.4,26,0.00,,---,0.00,VWS V14.01,2013-08-23 17:20:00,
2013-08-23 12:25:00,95.4,54.5,29.64,SW,235,5.8,7.6,26,0.00,,---,0.00,VWS V14.01,2013-08-23 17:25:00,
2013-08-23 12:30:00,95.5,54.7,29.64,South,185,7.6,10.5,26,0.00,,---,0.00,VWS V14.01,2013-08-23 17:30:00,
2013-08-23 12:35:00,95.4,54.5,29.64,SSW,208,10.1,10.1,26,0.00,,---,0.00,VWS V14.01,2013-08-23 17:35:00,
2013-08-23 12:40:00,95.7,54.8,29.64,SSW,193,6.3,7.6,26,0.00,,---,0.00,VWS V14.01,2013-08-23 17:40:00,
2013-08-23 12:45:00,95.4,54.5,29.64,South,176,10.1,10.5,26,0.00,,---,0.00,VWS V14.01,2013-08-23 17:45:00,
2013-08-23 12:50:00,94.5,53.8,29.64,South,186,6.3,7.6,26,0.00,,---,0.00,VWS V14.01,2013-08-23 17:50:00,
2013-08-23 12:55:00,93.7,53.2,29.64,SSW,207,5.8,6.3,26,0.00,,---,0.00,VWS V14.01,2013-08-23 17:55:00,
2013-08-23 13:00:00,93.6,53.0,29.64,SW,220,3.6,3.6,26,0.00,,---,0.00,VWS V14.01,2013-08-23 18:00:00,
2013-08-23 13:04:00,93.9,53.3,29.64,South,173,8.7,8.7,26,0.00,,---,0.00,VWS V14.01,2013-08-23 18:04:00,
2013-08-23 13:09:00,93.4,52.9,29.64,SSW,194,7.2,8.3,26,0.00,,---,0.00,VWS V14.01,2013-08-23 18:09:00,
2013-08-23 13:14:00,92.8,54.0,29.64,SW,224,3.1,5.8,27,0.00,,---,0.00,VWS V14.01,2013-08-23 18:14:00,
2013-08-23 13:19:00,92.5,53.7,29.64,SW,217,2.7,3.1,27,0.00,,---,0.00,VWS V14.01,2013-08-23 18:19:00,
2013-08-23 13:24:00,92.5,53.7,29.64,SSW,194,4.9,6.3,27,0.00,,---,0.00,VWS V14.01,2013-08-23 18:24:00,
2013-08-23 13:29:00,92.5,53.7,29.64,South,190,3.6,5.4,27,0.00,,---,0.00,VWS V14.01,2013-08-23 18:29:00,
2013-08-23 13:34:00,92.7,53.8,29.61,SW,229,7.2,7.2,27,0.00,,---,0.00,VWS V14.01,2013-08-23 18:34:00,
2013-08-23 13:39:00,92.7,53.8,29.61,SW,217,2.2,3.1,27,0.00,,---,0.00,VWS V14.01,2013-08-23 18:39:00,
2013-08-23 13:44:00,92.8,54.0,29.61,South,177,6.3,6.3,27,0.00,,---,0.00,VWS V14.01,2013-08-23 18:44:00,
2013-08-23 13:49:00,93.0,52.6,29.61,SE,146,8.1,9.2,26,0.00,,---,0.00,VWS V14.01,2013-08-23 18:49:00,
2013-08-23 13:54:00,93.0,52.6,29.61,SE,133,4.9,5.8,26,0.00,,---,0.00,VWS V14.01,2013-08-23 18:54:00,
2013-08-23 13:59:00,93.4,52.9,29.61,SSE,154,5.8,5.8,26,0.00,,---,0.00,VWS V14.01,2013-08-23 18:59:00,
2013-08-23 14:04:00,93.6,53.0,29.61,ESE,122,5.8,5.8,26,0.00,,---,0.00,VWS V14.01,2013-08-23 19:04:00,
2013-08-23 14:09:00,94.1,53.5,29.61,SSW,193,5.4,6.3,26,0.00,,---,0.00,VWS V14.01,2013-08-23 19:09:00,
2013-08-23 14:14:00,95.7,53.2,29.61,ESE,122,8.3,10.1,24,0.00,,---,0.00,VWS V14.01,2013-08-23 19:14:00,
2013-08-23 14:19:00,96.3,53.6,29.61,SE,144,6.7,8.3,24,0.00,,---,0.00,VWS V14.01,2013-08-23 19:19:00,
2013-08-23 14:24:00,95.9,53.3,29.61,SE,129,4.5,5.4,24,0.00,,---,0.00,VWS V14.01,2013-08-23 19:24:00,
2013-08-23 14:29:00,96.4,53.8,29.61,SE,135,5.4,8.3,24,0.00,,---,0.00,VWS V14.01,2013-08-23 19:29:00,
2013-08-23 14:34:00,97.5,54.7,29.61,South,184,8.7,8.7,24,0.00,,---,0.00,VWS V14.01,2013-08-23 19:34:00,
2013-08-23 14:39:00,98.1,55.1,29.61,South,169,7.6,10.5,24,0.00,,---,0.00,VWS V14.01,2013-08-23 19:39:00,
2013-08-23 14:44:00,97.9,55.0,29.61,SSW,205,2.7,7.2,24,0.00,,---,0.00,VWS V14.01,2013-08-23 19:44:00,
2013-08-23 14:49:00,96.6,53.9,29.61,SW,225,3.1,5.4,24,0.00,,---,0.00,VWS V14.01,2013-08-23 19:49:00,
2013-08-23 14:54:00,96.4,53.8,29.61,SSE,167,7.6,7.6,24,0.00,,---,0.00,VWS V14.01,2013-08-23 19:54:00,
2013-08-23 14:59:00,97.2,54.4,29.61,SW,229,7.6,7.6,24,0.00,,---,0.00,VWS V14.01,2013-08-23 19:59:00,
2013-08-23 15:04:00,97.7,49.2,29.58,SSE,160,10.5,10.5,20,0.00,,---,0.00,VWS V14.01,2013-08-23 20:04:00,
2013-08-23 15:09:00,97.0,54.2,29.58,South,182,5.8,5.8,24,0.00,,---,0.00,VWS V14.01,2013-08-23 20:09:00,
2013-08-23 15:14:00,96.8,54.1,29.58,ESE,109,5.8,7.6,24,0.00,,---,0.00,VWS V14.01,2013-08-23 20:14:00,
2013-08-23 15:19:00,97.3,54.5,29.58,SSE,157,12.3,12.3,24,0.00,,---,0.00,VWS V14.01,2013-08-23 20:19:00,
2013-08-23 15:24:00,96.4,53.8,29.58,South,175,11.0,11.0,24,0.00,,---,0.00,VWS V14.01,2013-08-23 20:24:00,
2013-08-23 15:29:00,97.3,54.5,29.58,SW,214,13.2,13.2,24,0.00,,---,0.00,VWS V14.01,2013-08-23 20:29:00,
2013-08-23 15:34:00,97.7,54.8,29.58,South,169,10.5,12.3,24,0.00,,---,0.00,VWS V14.01,2013-08-23 20:34:00,
2013-08-23 15:39:00,97.7,54.8,29.58,SE,124,8.7,11.4,24,0.00,,---,0.00,VWS V14.01,2013-08-23 20:39:00,
2013-08-23 15:44:00,97.2,54.4,29.58,ESE,122,10.1,11.0,24,0.00,,---,0.00,VWS V14.01,2013-08-23 20:44:00,
2013-08-23 15:49:00,97.2,54.4,29.58,ESE,118,8.7,12.8,24,0.00,,---,0.00,VWS V14.01,2013-08-23 20:49:00,
2013-08-23 15:54:00,97.0,54.2,29.58,SE,144,5.8,10.5,24,0.00,,---,0.00,VWS V14.01,2013-08-23 20:54:00,
2013-08-23 15:59:00,95.9,53.3,29.58,ESE,121,11.0,11.0,24,0.00,,---,0.00,VWS V14.01,2013-08-23 20:59:00,
2013-08-23 16:04:00,96.1,53.5,29.58,ESE,119,10.1,10.1,24,0.00,,---,0.00,VWS V14.01,2013-08-23 21:04:00,
2013-08-23 16:09:00,96.4,53.8,29.58,SSE,148,11.0,13.6,24,0.00,,---,0.00,VWS V14.01,2013-08-23 21:09:00,
2013-08-23 16:14:00,97.2,54.4,29.58,SE,141,8.1,11.0,24,0.00,,---,0.00,VWS V14.01,2013-08-23 21:14:00,
2013-08-23 16:19:00,97.5,54.7,29.58,ESE,117,3.6,6.3,24,0.00,,---,0.00,VWS V14.01,2013-08-23 21:19:00,
2013-08-23 16:24:00,97.9,55.0,29.58,East,97,8.7,10.5,24,0.00,,---,0.00,VWS V14.01,2013-08-23 21:24:00,
2013-08-23 16:29:00,97.9,49.4,29.58,SE,139,4.0,10.1,20,0.00,,---,0.00,VWS V14.01,2013-08-23 21:29:00,
2013-08-23 16:34:00,97.9,49.4,29.55,SE,135,5.4,10.1,20,0.00,,---,0.00,VWS V14.01,2013-08-23 21:34:00,
2013-08-23 16:39:00,97.3,48.9,29.55,SE,128,10.1,11.0,20,0.00,,---,0.00,VWS V14.01,2013-08-23 21:39:00,
2013-08-23 16:44:00,97.5,49.1,29.55,South,190,7.6,7.6,20,0.00,,---,0.00,VWS V14.01,2013-08-23 21:44:00,
2013-08-23 16:49:00,97.5,49.1,29.55,South,182,7.6,7.6,20,0.00,,---,0.00,VWS V14.01,2013-08-23 21:49:00,
2013-08-23 16:54:00,97.5,49.1,29.55,SE,125,7.6,10.1,20,0.00,,---,0.00,VWS V14.01,2013-08-23 21:54:00,
2013-08-23 16:59:00,97.5,49.1,29.55,SSE,150,8.3,8.3,20,0.00,,---,0.00,VWS V14.01,2013-08-23 21:59:00,
2013-08-23 17:04:00,97.3,48.9,29.55,South,170,5.4,8.3,20,0.00,,---,0.00,VWS V14.01,2013-08-23 22:04:00,
2013-08-23 17:09:00,97.3,48.9,29.55,SSE,165,7.6,8.1,20,0.00,,---,0.00,VWS V14.01,2013-08-23 22:09:00,
2013-08-23 17:14:00,97.9,49.4,29.55,South,173,8.1,8.1,20,0.00,,---,0.00,VWS V14.01,2013-08-23 22:14:00,
2013-08-23 17:19:00,98.1,49.5,29.55,SSE,152,6.3,6.3,20,0.00,,---,0.00,VWS V14.01,2013-08-23 22:19:00,
2013-08-23 17:24:00,98.1,49.5,29.55,SSE,163,8.7,11.0,20,0.00,,---,0.00,VWS V14.01,2013-08-23 22:24:00,
2013-08-23 17:29:00,97.5,49.1,29.55,SE,137,8.1,8.1,20,0.00,,---,0.00,VWS V14.01,2013-08-23 22:29:00,
2013-08-23 17:34:00,97.3,48.9,29.55,SE,137,7.6,11.0,20,0.00,,---,0.00,VWS V14.01,2013-08-23 22:34:00,
2013-08-23 17:39:00,96.8,48.5,29.55,SSE,167,8.3,8.3,20,0.00,,---,0.00,VWS V14.01,2013-08-23 22:39:00,
2013-08-23 17:44:00,97.0,54.2,29.55,SSE,147,8.3,8.3,24,0.00,,---,0.00,VWS V14.01,2013-08-23 22:44:00,
2013-08-23 17:49:00,97.2,48.8,29.55,ESE,115,6.3,7.2,20,0.00,,---,0.00,VWS V14.01,2013-08-23 22:49:00,
2013-08-23 17:54:00,97.0,48.6,29.55,ESE,108,8.7,10.5,20,0.00,,---,0.00,VWS V14.01,2013-08-23 22:54:00,
2013-08-23 17:59:00,97.0,54.2,29.55,East,90,10.5,10.5,24,0.00,,---,0.00,VWS V14.01,2013-08-23 22:59:00,
2013-08-23 18:04:00,96.6,53.9,29.55,SE,128,8.1,11.0,24,0.00,,---,0.00,VWS V14.01,2013-08-23 23:04:00,
2013-08-23 18:09:00,96.6,53.9,29.55,ESE,119,11.0,11.0,24,0.00,,---,0.00,VWS V14.01,2013-08-23 23:09:00,
2013-08-23 18:14:00,96.3,53.6,29.55,ESE,104,8.7,8.7,24,0.00,,---,0.00,VWS V14.01,2013-08-23 23:14:00,
2013-08-23 18:19:00,95.2,52.7,29.55,ESE,103,12.8,17.4,24,0.00,,---,0.00,VWS V14.01,2013-08-23 23:19:00,
2013-08-23 18:24:00,93.7,53.2,29.55,East,98,17.0,17.0,26,0.00,,---,0.00,VWS V14.01,2013-08-23 23:24:00,
2013-08-23 18:29:00,92.7,53.8,29.55,ESE,123,10.1,11.0,27,0.00,,---,0.00,VWS V14.01,2013-08-23 23:29:00,
2013-08-23 18:34:00,91.8,53.1,29.55,SE,129,12.8,12.8,27,0.00,,---,0.00,VWS V14.01,2013-08-23 23:34:00,
2013-08-23 18:39:00,91.2,54.1,29.55,ESE,108,12.8,16.8,28,0.00,,---,0.00,VWS V14.01,2013-08-23 23:39:00,
2013-08-23 18:44:00,91.0,55.3,29.55,ESE,117,8.3,10.5,30,0.00,,---,0.00,VWS V14.01,2013-08-23 23:44:00,
2013-08-23 18:49:00,91.0,55.3,29.55,ESE,114,10.1,10.1,30,0.00,,---,0.00,VWS V14.01,2013-08-23 23:49:00,
2013-08-23 18:54:00,91.2,55.5,29.55,ESE,111,11.0,11.0,30,0.00,,---,0.00,VWS V14.01,2013-08-23 23:54:00,
2013-08-23 18:59:00,91.4,54.2,29.55,ESE,122,12.8,12.8,28,0.00,,---,0.00,VWS V14.01,2013-08-23 23:59:00,
2013-08-23 19:04:00,91.2,54.1,29.55,SE,128,8.7,12.8,28,0.00,,---,0.00,VWS V14.01,2013-08-24 00:04:00,
2013-08-23 19:09:00,91.2,54.1,29.55,East,97,7.2,7.2,28,0.00,,---,0.00,VWS V14.01,2013-08-24 00:09:00,
2013-08-23 19:14:00,91.0,53.9,29.55,ESE,116,6.3,7.6,28,0.00,,---,0.00,VWS V14.01,2013-08-24 00:14:00,
2013-08-23 19:19:00,90.9,53.8,29.55,ESE,110,13.2,14.1,28,0.00,,---,0.00,VWS V14.01,2013-08-24 00:19:00,
2013-08-23 19:24:00,90.5,53.5,29.55,ESE,120,11.9,11.9,28,0.00,,---,0.00,VWS V14.01,2013-08-24 00:24:00,
2013-08-23 19:29:00,90.1,53.2,29.55,SE,137,6.3,6.3,28,0.00,,---,0.00,VWS V14.01,2013-08-24 00:29:00,
2013-08-23 19:34:00,89.8,54.2,29.55,ESE,113,10.5,10.5,30,0.00,,---,0.00,VWS V14.01,2013-08-24 00:34:00,
2013-08-23 19:39:00,89.2,53.8,29.55,SE,124,7.6,8.3,30,0.00,,---,0.00,VWS V14.01,2013-08-24 00:39:00,
2013-08-23 19:44:00,88.7,54.7,29.55,ESE,121,7.6,7.6,32,0.00,,---,0.00,VWS V14.01,2013-08-24 00:44:00,
2013-08-23 19:49:00,88.0,54.0,29.55,ESE,114,8.3,8.3,32,0.00,,---,0.00,VWS V14.01,2013-08-24 00:49:00,
2013-08-23 19:54:00,87.6,55.0,29.55,SE,125,8.3,11.0,33,0.00,,---,0.00,VWS V14.01,2013-08-24 00:54:00,
2013-08-23 19:59:00,87.1,55.7,29.55,SE,127,9.6,9.6,34,0.00,,---,0.00,VWS V14.01,2013-08-24 00:59:00,
2013-08-23 20:04:00,86.7,57.7,29.58,East,95,8.1,8.7,38,0.00,,---,0.00,VWS V14.01,2013-08-24 01:04:00,
2013-08-23 20:09:00,86.2,60.4,29.58,ESE,107,6.3,6.3,42,0.00,,---,0.00,VWS V14.01,2013-08-24 01:09:00,
2013-08-23 20:14:00,85.6,60.9,29.58,ESE,110,6.3,6.3,44,0.00,,---,0.00,VWS V14.01,2013-08-24 01:14:00,
2013-08-23 20:19:00,84.9,60.3,29.58,ESE,112,7.2,7.2,44,0.00,,---,0.00,VWS V14.01,2013-08-24 01:19:00,
2013-08-23 20:24:00,84.6,60.0,29.58,SE,129,8.1,8.1,44,0.00,,---,0.00,VWS V14.01,2013-08-24 01:24:00,
2013-08-23 20:29:00,84.2,59.6,29.58,SE,125,5.8,5.8,44,0.00,,---,0.00,VWS V14.01,2013-08-24 01:29:00,
2013-08-23 20:34:00,83.7,60.1,29.58,ESE,110,7.6,7.6,45,0.00,,---,0.00,VWS V14.01,2013-08-24 01:34:00,
2013-08-23 20:39:00,83.3,60.7,29.58,ESE,118,6.3,8.7,46,0.00,,---,0.00,VWS V14.01,2013-08-24 01:39:00,
2013-08-23 20:44:00,82.9,60.4,29.58,ESE,104,7.6,8.1,46,0.00,,---,0.00,VWS V14.01,2013-08-24 01:44:00,
2013-08-23 20:49:00,82.6,60.0,29.58,ESE,113,5.8,8.7,46,0.00,,---,0.00,VWS V14.01,2013-08-24 01:49:00,
2013-08-23 20:54:00,82.2,60.6,29.58,ESE,117,7.2,8.1,48,0.00,,---,0.00,VWS V14.01,2013-08-24 01:54:00,
2013-08-23 20:59:00,81.9,60.3,29.58,ESE,112,5.4,7.6,48,0.00,,---,0.00,VWS V14.01,2013-08-24 01:59:00,
2013-08-23 21:04:00,81.5,60.8,29.58,ESE,110,6.3,6.3,50,0.00,,---,0.00,VWS V14.01,2013-08-24 02:04:00,
2013-08-23 21:08:00,81.3,60.6,29.58,East,100,5.4,7.6,50,0.00,,---,0.00,VWS V14.01,2013-08-24 02:08:00,
2013-08-23 21:13:00,81.1,60.5,29.58,ESE,114,6.3,7.6,50,0.00,,---,0.00,VWS V14.01,2013-08-24 02:13:00,
2013-08-23 21:18:00,80.8,61.0,29.58,ESE,114,8.1,8.1,51,0.00,,---,0.00,VWS V14.01,2013-08-24 02:18:00,
2013-08-23 21:23:00,80.6,60.8,29.58,ESE,104,6.3,7.6,51,0.00,,---,0.00,VWS V14.01,2013-08-24 02:23:00,
2013-08-23 21:28:00,80.4,61.5,29.58,ESE,107,4.9,5.4,52,0.00,,---,0.00,VWS V14.01,2013-08-24 02:28:00,
2013-08-23 21:33:00,80.1,61.1,29.61,ESE,103,8.1,8.1,52,0.00,,---,0.00,VWS V14.01,2013-08-24 02:33:00,
2013-08-23 21:38:00,80.1,61.1,29.61,ESE,109,5.8,6.3,52,0.00,,---,0.00,VWS V14.01,2013-08-24 02:38:00,
2013-08-23 21:43:00,79.9,61.8,29.61,ESE,110,5.4,6.3,54,0.00,,---,0.00,VWS V14.01,2013-08-24 02:43:00,
2013-08-23 21:48:00,79.9,61.8,29.61,SE,124,6.3,6.3,54,0.00,,---,0.00,VWS V14.01,2013-08-24 02:48:00,
2013-08-23 21:53:00,79.7,62.4,29.61,ESE,119,6.3,6.3,56,0.00,,---,0.00,VWS V14.01,2013-08-24 02:53:00,
2013-08-23 21:58:00,79.7,62.4,29.61,ESE,113,5.4,7.6,56,0.00,,---,0.00,VWS V14.01,2013-08-24 02:58:00,
2013-08-23 22:03:00,79.7,63.1,29.61,ESE,113,5.8,8.1,57,0.00,,---,0.00,VWS V14.01,2013-08-24 03:03:00,
2013-08-23 22:08:00,79.7,63.1,29.61,ESE,117,5.8,6.7,57,0.00,,---,0.00,VWS V14.01,2013-08-24 03:08:00,
2013-08-23 22:13:00,79.7,63.9,29.61,ESE,117,7.6,7.6,58,0.00,,---,0.00,VWS V14.01,2013-08-24 03:13:00,
2013-08-23 22:18:00,79.5,63.7,29.64,ESE,107,5.8,7.6,58,0.00,,---,0.00,VWS V14.01,2013-08-24 03:18:00,
2013-08-23 22:23:00,79.5,64.4,29.64,ESE,114,6.3,6.3,60,0.00,,---,0.00,VWS V14.01,2013-08-24 03:23:00,
2013-08-23 22:28:00,79.3,64.3,29.64,ESE,122,8.1,8.3,60,0.00,,---,0.00,VWS V14.01,2013-08-24 03:28:00,
2013-08-23 22:33:00,79.3,64.3,29.64,ESE,118,4.0,6.7,60,0.00,,---,0.00,VWS V14.01,2013-08-24 03:33:00,
2013-08-23 22:38:00,79.2,64.1,29.64,ESE,119,4.0,6.3,60,0.00,,---,0.00,VWS V14.01,2013-08-24 03:38:00,
2013-08-23 22:43:00,79.0,63.9,29.64,ESE,121,4.9,6.3,60,0.00,,---,0.00,VWS V14.01,2013-08-24 03:43:00,
2013-08-23 22:48:00,78.8,64.5,29.64,ESE,107,3.6,5.8,62,0.00,,---,0.00,VWS V14.01,2013-08-24 03:48:00,
2013-08-23 22:53:00,78.6,64.3,29.64,ESE,115,5.4,5.8,62,0.00,,---,0.00,VWS V14.01,2013-08-24 03:53:00,
2013-08-23 22:58:00,78.4,64.8,29.64,ESE,112,3.6,5.8,63,0.00,,---,0.00,VWS V14.01,2013-08-24 03:58:00,
2013-08-23 23:01:00,78.3,64.6,29.64,ESE,106,5.8,5.8,63,0.00,,---,0.00,VWS V14.01,2013-08-24 04:01:00,
2013-08-23 23:06:00,78.1,64.5,29.64,East,101,3.6,4.0,63,0.00,,---,0.00,VWS V14.01,2013-08-24 04:06:00,
2013-08-23 23:11:00,77.9,64.3,29.64,East,101,3.1,4.0,63,0.00,,---,0.00,VWS V14.01,2013-08-24 04:11:00,
2013-08-23 23:16:00,77.5,64.0,29.64,ESE,106,3.6,4.0,63,0.00,,---,0.00,VWS V14.01,2013-08-24 04:16:00,
2013-08-23 23:21:00,77.2,63.6,29.64,ESE,106,4.0,4.0,63,0.00,,---,0.00,VWS V14.01,2013-08-24 04:21:00,
2013-08-23 23:26:00,77.0,64.1,29.64,ESE,115,5.8,5.8,64,0.00,,---,0.00,VWS V14.01,2013-08-24 04:26:00,
2013-08-23 23:31:00,76.8,64.6,29.61,East,95,5.8,5.8,66,0.00,,---,0.00,VWS V14.01,2013-08-24 04:31:00,
2013-08-23 23:36:00,76.6,64.4,29.61,East,101,6.3,6.3,66,0.00,,---,0.00,VWS V14.01,2013-08-24 04:36:00,
2013-08-23 23:41:00,76.5,64.9,29.61,East,95,5.8,5.8,68,0.00,,---,0.00,VWS V14.01,2013-08-24 04:41:00,
2013-08-23 23:46:00,76.3,64.7,29.64,East,100,4.0,5.4,68,0.00,,---,0.00,VWS V14.01,2013-08-24 04:46:00,
2013-08-23 23:51:00,76.3,64.7,29.64,ESE,108,3.6,5.4,68,0.00,,---,0.00,VWS V14.01,2013-08-24 04:51:00,
2013-08-23 23:56:00,76.1,65.2,29.64,ESE,110,3.1,3.1,69,0.00,,---,0.00,VWS V14.01,2013-08-24 04:56:00,